sensor_id;sensor_type;location;lat;lon;timestamp;temperature;humidity
74809;DHT22;63338;39.544;2.596;2022-12-07T00:01:33;15.20;90.00
74809;DHT22;63338;39.544;2.596;2022-12-07T00:04:02;15.20;90.10
74809;DHT22;63338;39.544;2.596;2022-12-07T00:06:32;15.20;90.20
74809;DHT22;63338;39.544;2.596;2022-12-07T00:08:59;15.10;90.20
74809;DHT22;63338;39.544;2.596;2022-12-07T00:11:25;15.20;90.30
74809;DHT22;63338;39.544;2.596;2022-12-07T00:13:54;15.10;90.20
74809;DHT22;63338;39.544;2.596;2022-12-07T00:16:21;15.20;90.20
74809;DHT22;63338;39.544;2.596;2022-12-07T00:18:48;15.20;90.20
74809;DHT22;63338;39.544;2.596;2022-12-07T00:21:26;15.20;90.00
74809;DHT22;63338;39.544;2.596;2022-12-07T00:23:56;15.20;89.80
74809;DHT22;63338;39.544;2.596;2022-12-07T00:26:25;15.30;90.00
74809;DHT22;63338;39.544;2.596;2022-12-07T00:28:56;15.10;90.10
74809;DHT22;63338;39.544;2.596;2022-12-07T00:31:24;15.10;89.80
74809;DHT22;63338;39.544;2.596;2022-12-07T00:33:50;15.10;89.90
74809;DHT22;63338;39.544;2.596;2022-12-07T00:36:23;15.10;90.00
74809;DHT22;63338;39.544;2.596;2022-12-07T00:38:50;15.10;90.00
74809;DHT22;63338;39.544;2.596;2022-12-07T00:41:22;15.10;90.10
74809;DHT22;63338;39.544;2.596;2022-12-07T00:43:49;15.00;90.30
74809;DHT22;63338;39.544;2.596;2022-12-07T00:46:16;15.10;90.30
74809;DHT22;63338;39.544;2.596;2022-12-07T00:48:43;15.10;90.20
74809;DHT22;63338;39.544;2.596;2022-12-07T00:51:12;15.10;90.20
74809;DHT22;63338;39.544;2.596;2022-12-07T00:53:38;15.10;90.20
74809;DHT22;63338;39.544;2.596;2022-12-07T00:56:10;15.10;89.90
74809;DHT22;63338;39.544;2.596;2022-12-07T00:58:37;15.10;89.90
74809;DHT22;63338;39.544;2.596;2022-12-07T01:01:07;15.10;89.80
74809;DHT22;63338;39.544;2.596;2022-12-07T01:03:34;15.20;90.00
74809;DHT22;63338;39.544;2.596;2022-12-07T01:06:01;15.10;89.80
74809;DHT22;63338;39.544;2.596;2022-12-07T01:08:28;15.10;90.00
74809;DHT22;63338;39.544;2.596;2022-12-07T01:11:03;15.10;90.00
74809;DHT22;63338;39.544;2.596;2022-12-07T01:13:31;15.10;90.00
74809;DHT22;63338;39.544;2.596;2022-12-07T01:15:59;15.10;90.10
74809;DHT22;63338;39.544;2.596;2022-12-07T01:18:29;15.10;90.00
74809;DHT22;63338;39.544;2.596;2022-12-07T01:23:29;15.10;89.90
74809;DHT22;63338;39.544;2.596;2022-12-07T01:26:00;15.10;89.80
74809;DHT22;63338;39.544;2.596;2022-12-07T01:28:27;15.00;89.90
74809;DHT22;63338;39.544;2.596;2022-12-07T01:31:02;15.00;90.00
74809;DHT22;63338;39.544;2.596;2022-12-07T01:33:31;15.10;89.90
74809;DHT22;63338;39.544;2.596;2022-12-07T01:36:04;15.10;89.80
74809;DHT22;63338;39.544;2.596;2022-12-07T01:38:31;15.10;89.80
74809;DHT22;63338;39.544;2.596;2022-12-07T01:41:03;15.10;90.00
74809;DHT22;63338;39.544;2.596;2022-12-07T01:43:31;15.00;90.20
74809;DHT22;63338;39.544;2.596;2022-12-07T01:46:02;15.00;90.20
74809;DHT22;63338;39.544;2.596;2022-12-07T01:48:39;15.00;90.30
74809;DHT22;63338;39.544;2.596;2022-12-07T01:51:11;15.10;90.30
74809;DHT22;63338;39.544;2.596;2022-12-07T01:53:41;15.10;90.30
74809;DHT22;63338;39.544;2.596;2022-12-07T01:56:11;15.10;90.20
74809;DHT22;63338;39.544;2.596;2022-12-07T01:58:41;15.10;90.30
74809;DHT22;63338;39.544;2.596;2022-12-07T02:01:07;15.00;90.30
74809;DHT22;63338;39.544;2.596;2022-12-07T02:03:41;15.00;90.40
74809;DHT22;63338;39.544;2.596;2022-12-07T02:06:09;15.00;90.30
74809;DHT22;63338;39.544;2.596;2022-12-07T02:08:36;15.10;90.40
74809;DHT22;63338;39.544;2.596;2022-12-07T02:11:06;15.10;90.50
74809;DHT22;63338;39.544;2.596;2022-12-07T02:13:37;15.10;90.30
74809;DHT22;63338;39.544;2.596;2022-12-07T02:24:22;15.00;90.30
74809;DHT22;63338;39.544;2.596;2022-12-07T02:27:50;15.00;90.50
74809;DHT22;63338;39.544;2.596;2022-12-07T02:30:20;14.90;90.50
74809;DHT22;63338;39.544;2.596;2022-12-07T02:33:12;14.90;90.60
74809;DHT22;63338;39.544;2.596;2022-12-07T02:35:59;14.80;90.40
74809;DHT22;63338;39.544;2.596;2022-12-07T02:38:31;14.80;90.60
74809;DHT22;63338;39.544;2.596;2022-12-07T02:43:43;14.80;90.50
74809;DHT22;63338;39.544;2.596;2022-12-07T02:46:36;14.70;90.80
74809;DHT22;63338;39.544;2.596;2022-12-07T02:49:03;14.70;91.00
74809;DHT22;63338;39.544;2.596;2022-12-07T02:51:42;14.50;90.90
74809;DHT22;63338;39.544;2.596;2022-12-07T02:54:16;14.50;91.20
74809;DHT22;63338;39.544;2.596;2022-12-07T02:57:25;14.50;91.20
74809;DHT22;63338;39.544;2.596;2022-12-07T03:00:00;14.50;91.20
74809;DHT22;63338;39.544;2.596;2022-12-07T03:11:30;14.30;91.10
74809;DHT22;63338;39.544;2.596;2022-12-07T03:14:20;14.30;91.10
74809;DHT22;63338;39.544;2.596;2022-12-07T03:17:07;14.30;91.10
74809;DHT22;63338;39.544;2.596;2022-12-07T03:19:36;14.30;91.00
74809;DHT22;63338;39.544;2.596;2022-12-07T03:22:07;14.20;91.00
74809;DHT22;63338;39.544;2.596;2022-12-07T03:24:46;14.20;90.90
74809;DHT22;63338;39.544;2.596;2022-12-07T03:27:21;14.20;91.10
74809;DHT22;63338;39.544;2.596;2022-12-07T03:30:06;14.10;91.10
74809;DHT22;63338;39.544;2.596;2022-12-07T03:32:50;14.10;91.10
74809;DHT22;63338;39.544;2.596;2022-12-07T03:35:25;14.10;91.20
74809;DHT22;63338;39.544;2.596;2022-12-07T03:38:00;13.90;91.40
74809;DHT22;63338;39.544;2.596;2022-12-07T03:40:34;13.90;91.20
74809;DHT22;63338;39.544;2.596;2022-12-07T03:43:01;13.90;91.20
74809;DHT22;63338;39.544;2.596;2022-12-07T03:45:43;13.90;91.20
74809;DHT22;63338;39.544;2.596;2022-12-07T03:53:31;13.70;91.70
74809;DHT22;63338;39.544;2.596;2022-12-07T03:56:02;13.60;91.80
74809;DHT22;63338;39.544;2.596;2022-12-07T03:58:30;13.60;91.80
74809;DHT22;63338;39.544;2.596;2022-12-07T04:01:19;13.70;91.90
74809;DHT22;63338;39.544;2.596;2022-12-07T04:04:06;13.60;92.10
74809;DHT22;63338;39.544;2.596;2022-12-07T04:06:54;13.50;92.20
74809;DHT22;63338;39.544;2.596;2022-12-07T04:09:38;13.50;92.10
74809;DHT22;63338;39.544;2.596;2022-12-07T04:12:23;13.50;92.50
74809;DHT22;63338;39.544;2.596;2022-12-07T04:15:11;13.40;92.40
74809;DHT22;63338;39.544;2.596;2022-12-07T04:17:56;13.40;92.80
74809;DHT22;63338;39.544;2.596;2022-12-07T04:20:40;13.30;93.00
74809;DHT22;63338;39.544;2.596;2022-12-07T04:23:25;13.30;93.10
74809;DHT22;63338;39.544;2.596;2022-12-07T04:26:13;13.20;93.00
74809;DHT22;63338;39.544;2.596;2022-12-07T04:28:57;13.20;92.80
74809;DHT22;63338;39.544;2.596;2022-12-07T04:31:43;13.20;92.50
74809;DHT22;63338;39.544;2.596;2022-12-07T04:34:27;13.10;92.70
74809;DHT22;63338;39.544;2.596;2022-12-07T04:37:12;13.10;92.60
74809;DHT22;63338;39.544;2.596;2022-12-07T04:39:59;13.10;93.00
74809;DHT22;63338;39.544;2.596;2022-12-07T04:42:44;13.20;93.00
74809;DHT22;63338;39.544;2.596;2022-12-07T04:45:35;13.20;93.00
74809;DHT22;63338;39.544;2.596;2022-12-07T04:48:21;13.20;93.00
74809;DHT22;63338;39.544;2.596;2022-12-07T04:51:06;13.30;93.20
74809;DHT22;63338;39.544;2.596;2022-12-07T04:53:52;13.30;93.20
74809;DHT22;63338;39.544;2.596;2022-12-07T04:56:37;13.40;92.90
74809;DHT22;63338;39.544;2.596;2022-12-07T04:59:22;13.30;92.80
74809;DHT22;63338;39.544;2.596;2022-12-07T05:02:06;13.30;93.10
74809;DHT22;63338;39.544;2.596;2022-12-07T05:04:51;13.20;93.00
74809;DHT22;63338;39.544;2.596;2022-12-07T05:07:39;13.30;92.90
74809;DHT22;63338;39.544;2.596;2022-12-07T05:10:26;13.30;93.10
74809;DHT22;63338;39.544;2.596;2022-12-07T05:13:11;13.20;93.00
74809;DHT22;63338;39.544;2.596;2022-12-07T05:16:04;13.30;93.20
74809;DHT22;63338;39.544;2.596;2022-12-07T05:18:52;13.20;93.20
74809;DHT22;63338;39.544;2.596;2022-12-07T05:21:37;13.20;93.10
74809;DHT22;63338;39.544;2.596;2022-12-07T05:24:22;13.10;93.10
74809;DHT22;63338;39.544;2.596;2022-12-07T05:27:10;13.10;93.00
74809;DHT22;63338;39.544;2.596;2022-12-07T05:29:55;13.10;92.50
74809;DHT22;63338;39.544;2.596;2022-12-07T05:32:39;12.90;92.40
74809;DHT22;63338;39.544;2.596;2022-12-07T05:35:24;13.00;92.10
74809;DHT22;63338;39.544;2.596;2022-12-07T05:38:09;13.00;92.20
74809;DHT22;63338;39.544;2.596;2022-12-07T05:41:00;12.90;92.50
74809;DHT22;63338;39.544;2.596;2022-12-07T05:43:46;13.00;92.70
74809;DHT22;63338;39.544;2.596;2022-12-07T05:46:31;12.90;93.00
74809;DHT22;63338;39.544;2.596;2022-12-07T05:49:15;12.90;92.80
74809;DHT22;63338;39.544;2.596;2022-12-07T05:52:01;13.00;92.70
74809;DHT22;63338;39.544;2.596;2022-12-07T05:54:46;12.90;92.50
74809;DHT22;63338;39.544;2.596;2022-12-07T05:57:31;12.80;92.80
74809;DHT22;63338;39.544;2.596;2022-12-07T06:00:15;12.90;92.80
74809;DHT22;63338;39.544;2.596;2022-12-07T06:03:01;12.70;92.70
74809;DHT22;63338;39.544;2.596;2022-12-07T06:05:54;12.70;92.60
74809;DHT22;63338;39.544;2.596;2022-12-07T06:08:42;12.80;92.80
74809;DHT22;63338;39.544;2.596;2022-12-07T06:11:26;12.60;94.00
74809;DHT22;63338;39.544;2.596;2022-12-07T06:14:30;12.60;94.00
74809;DHT22;63338;39.544;2.596;2022-12-07T06:17:06;12.60;94.30
74809;DHT22;63338;39.544;2.596;2022-12-07T06:19:32;12.60;94.50
74809;DHT22;63338;39.544;2.596;2022-12-07T06:21:58;12.40;94.70
74809;DHT22;63338;39.544;2.596;2022-12-07T06:24:25;12.60;94.70
74809;DHT22;63338;39.544;2.596;2022-12-07T06:26:51;12.60;94.60
74809;DHT22;63338;39.544;2.596;2022-12-07T06:29:18;12.50;94.30
74809;DHT22;63338;39.544;2.596;2022-12-07T06:31:44;12.60;94.50
74809;DHT22;63338;39.544;2.596;2022-12-07T06:34:12;12.50;94.30
74809;DHT22;63338;39.544;2.596;2022-12-07T06:36:39;12.40;94.60
74809;DHT22;63338;39.544;2.596;2022-12-07T06:39:08;12.50;95.00
74809;DHT22;63338;39.544;2.596;2022-12-07T06:41:37;12.50;94.90
74809;DHT22;63338;39.544;2.596;2022-12-07T06:44:10;12.50;94.80
74809;DHT22;63338;39.544;2.596;2022-12-07T06:46:39;12.40;94.60
74809;DHT22;63338;39.544;2.596;2022-12-07T06:49:08;12.40;94.90
74809;DHT22;63338;39.544;2.596;2022-12-07T06:51:39;12.40;95.00
74809;DHT22;63338;39.544;2.596;2022-12-07T06:54:13;12.40;95.00
74809;DHT22;63338;39.544;2.596;2022-12-07T06:56:43;12.40;95.10
74809;DHT22;63338;39.544;2.596;2022-12-07T06:59:09;12.40;95.00
74809;DHT22;63338;39.544;2.596;2022-12-07T07:01:39;12.40;95.30
74809;DHT22;63338;39.544;2.596;2022-12-07T07:04:06;12.50;95.10
74809;DHT22;63338;39.544;2.596;2022-12-07T07:06:36;12.60;95.20
74809;DHT22;63338;39.544;2.596;2022-12-07T07:09:05;12.60;95.50
74809;DHT22;63338;39.544;2.596;2022-12-07T07:11:31;12.60;95.40
74809;DHT22;63338;39.544;2.596;2022-12-07T07:13:57;12.60;95.30
74809;DHT22;63338;39.544;2.596;2022-12-07T07:16:29;12.60;95.10
74809;DHT22;63338;39.544;2.596;2022-12-07T07:18:59;12.70;93.90
74809;DHT22;63338;39.544;2.596;2022-12-07T07:21:25;12.80;93.80
74809;DHT22;63338;39.544;2.596;2022-12-07T07:23:51;12.80;93.60
74809;DHT22;63338;39.544;2.596;2022-12-07T07:26:25;12.80;93.80
74809;DHT22;63338;39.544;2.596;2022-12-07T07:28:54;12.80;93.90
74809;DHT22;63338;39.544;2.596;2022-12-07T07:31:20;12.90;94.00
74809;DHT22;63338;39.544;2.596;2022-12-07T07:33:47;12.90;94.20
74809;DHT22;63338;39.544;2.596;2022-12-07T07:36:13;13.00;94.10
74809;DHT22;63338;39.544;2.596;2022-12-07T07:38:42;13.00;93.80
74809;DHT22;63338;39.544;2.596;2022-12-07T07:41:08;13.10;94.10
74809;DHT22;63338;39.544;2.596;2022-12-07T07:43:34;13.10;94.20
74809;DHT22;63338;39.544;2.596;2022-12-07T07:46:00;13.20;94.10
74809;DHT22;63338;39.544;2.596;2022-12-07T07:48:26;13.30;93.80
74809;DHT22;63338;39.544;2.596;2022-12-07T07:50:53;13.30;93.80
74809;DHT22;63338;39.544;2.596;2022-12-07T07:53:21;13.30;93.60
74809;DHT22;63338;39.544;2.596;2022-12-07T07:55:52;13.50;93.80
74809;DHT22;63338;39.544;2.596;2022-12-07T07:58:20;13.60;93.40
74809;DHT22;63338;39.544;2.596;2022-12-07T08:00:46;13.70;93.60
74809;DHT22;63338;39.544;2.596;2022-12-07T08:03:12;13.80;93.30
74809;DHT22;63338;39.544;2.596;2022-12-07T08:05:38;13.80;93.40
74809;DHT22;63338;39.544;2.596;2022-12-07T08:08:07;13.90;93.20
74809;DHT22;63338;39.544;2.596;2022-12-07T08:10:36;14.10;93.20
74809;DHT22;63338;39.544;2.596;2022-12-07T08:13:03;14.10;93.20
74809;DHT22;63338;39.544;2.596;2022-12-07T08:15:46;14.20;93.20
74809;DHT22;63338;39.544;2.596;2022-12-07T08:18:13;14.30;92.90
74809;DHT22;63338;39.544;2.596;2022-12-07T08:20:42;14.40;92.70
74809;DHT22;63338;39.544;2.596;2022-12-07T08:23:09;14.50;92.60
74809;DHT22;63338;39.544;2.596;2022-12-07T08:25:36;14.60;92.60
74809;DHT22;63338;39.544;2.596;2022-12-07T08:28:05;14.60;92.60
74809;DHT22;63338;39.544;2.596;2022-12-07T08:30:31;14.70;92.50
74809;DHT22;63338;39.544;2.596;2022-12-07T08:32:58;14.70;92.50
74809;DHT22;63338;39.544;2.596;2022-12-07T08:35:25;14.80;92.60
74809;DHT22;63338;39.544;2.596;2022-12-07T08:37:52;14.90;92.40
74809;DHT22;63338;39.544;2.596;2022-12-07T08:40:18;15.10;91.90
74809;DHT22;63338;39.544;2.596;2022-12-07T08:42:51;15.20;91.70
74809;DHT22;63338;39.544;2.596;2022-12-07T08:45:18;15.30;91.30
74809;DHT22;63338;39.544;2.596;2022-12-07T08:48:12;15.40;89.90
74809;DHT22;63338;39.544;2.596;2022-12-07T08:50:41;15.50;89.50
74809;DHT22;63338;39.544;2.596;2022-12-07T08:57:03;16.10;89.00
74809;DHT22;63338;39.544;2.596;2022-12-07T08:59:30;16.50;86.70
74809;DHT22;63338;39.544;2.596;2022-12-07T09:01:56;16.60;86.50
74809;DHT22;63338;39.544;2.596;2022-12-07T09:04:25;16.80;86.30
74809;DHT22;63338;39.544;2.596;2022-12-07T09:06:52;16.90;85.60
74809;DHT22;63338;39.544;2.596;2022-12-07T09:09:19;17.00;85.00
74809;DHT22;63338;39.544;2.596;2022-12-07T09:11:45;17.00;85.10
74809;DHT22;63338;39.544;2.596;2022-12-07T09:14:12;17.20;84.60
74809;DHT22;63338;39.544;2.596;2022-12-07T09:16:41;17.20;84.40
74809;DHT22;63338;39.544;2.596;2022-12-07T09:19:09;17.40;83.90
74809;DHT22;63338;39.544;2.596;2022-12-07T09:21:46;17.30;84.00
74809;DHT22;63338;39.544;2.596;2022-12-07T09:24:17;17.50;83.30
74809;DHT22;63338;39.544;2.596;2022-12-07T09:26:54;17.40;83.10
74809;DHT22;63338;39.544;2.596;2022-12-07T09:29:20;17.50;83.10
74809;DHT22;63338;39.544;2.596;2022-12-07T09:31:49;17.60;83.10
74809;DHT22;63338;39.544;2.596;2022-12-07T09:34:25;17.60;82.60
74809;DHT22;63338;39.544;2.596;2022-12-07T09:37:04;17.60;82.30
74809;DHT22;63338;39.544;2.596;2022-12-07T09:39:40;17.40;82.60
74809;DHT22;63338;39.544;2.596;2022-12-07T09:42:07;17.50;82.70
74809;DHT22;63338;39.544;2.596;2022-12-07T09:44:41;17.40;82.80
74809;DHT22;63338;39.544;2.596;2022-12-07T09:47:11;17.40;82.90
74809;DHT22;63338;39.544;2.596;2022-12-07T09:49:40;17.30;83.20
74809;DHT22;63338;39.544;2.596;2022-12-07T09:52:48;17.30;83.20
74809;DHT22;63338;39.544;2.596;2022-12-07T09:55:16;17.20;83.40
74809;DHT22;63338;39.544;2.596;2022-12-07T09:57:52;17.20;83.60
74809;DHT22;63338;39.544;2.596;2022-12-07T10:00:23;17.20;83.30
74809;DHT22;63338;39.544;2.596;2022-12-07T10:03:00;17.20;83.40
74809;DHT22;63338;39.544;2.596;2022-12-07T10:05:44;17.20;83.60
74809;DHT22;63338;39.544;2.596;2022-12-07T10:08:25;17.20;83.60
74809;DHT22;63338;39.544;2.596;2022-12-07T10:10:55;17.20;83.50
74809;DHT22;63338;39.544;2.596;2022-12-07T10:22:10;17.30;83.30
74809;DHT22;63338;39.544;2.596;2022-12-07T10:24:45;17.40;83.30
74809;DHT22;63338;39.544;2.596;2022-12-07T10:27:30;17.30;83.40
74809;DHT22;63338;39.544;2.596;2022-12-07T10:30:14;17.40;83.30
74809;DHT22;63338;39.544;2.596;2022-12-07T10:32:41;17.50;83.10
74809;DHT22;63338;39.544;2.596;2022-12-07T10:37:49;17.50;83.30
74809;DHT22;63338;39.544;2.596;2022-12-07T10:46:03;17.70;82.50
74809;DHT22;63338;39.544;2.596;2022-12-07T10:54:14;17.90;82.10
74809;DHT22;63338;39.544;2.596;2022-12-07T11:00:39;18.00;82.20
74809;DHT22;63338;39.544;2.596;2022-12-07T11:15:33;18.70;79.20
74809;DHT22;63338;39.544;2.596;2022-12-07T11:21:21;18.90;78.90
74809;DHT22;63338;39.544;2.596;2022-12-07T11:27:13;19.20;77.70
74809;DHT22;63338;39.544;2.596;2022-12-07T11:29:51;19.30;77.20
74809;DHT22;63338;39.544;2.596;2022-12-07T11:35:52;19.40;76.00
74809;DHT22;63338;39.544;2.596;2022-12-07T11:38:34;19.30;76.00
74809;DHT22;63338;39.544;2.596;2022-12-07T11:41:06;19.40;76.00
74809;DHT22;63338;39.544;2.596;2022-12-07T11:52:53;19.50;75.60
74809;DHT22;63338;39.544;2.596;2022-12-07T12:02:22;19.70;75.30
74809;DHT22;63338;39.544;2.596;2022-12-07T12:05:18;19.70;75.00
74809;DHT22;63338;39.544;2.596;2022-12-07T12:13:03;19.90;74.40
74809;DHT22;63338;39.544;2.596;2022-12-07T12:20:51;19.90;73.90
74809;DHT22;63338;39.544;2.596;2022-12-07T12:26:48;19.90;74.10
74809;DHT22;63338;39.544;2.596;2022-12-07T12:29:37;19.90;73.90
74809;DHT22;63338;39.544;2.596;2022-12-07T12:32:14;19.80;74.10
74809;DHT22;63338;39.544;2.596;2022-12-07T12:37:47;19.80;74.00
74809;DHT22;63338;39.544;2.596;2022-12-07T12:42:50;19.50;74.50
74809;DHT22;63338;39.544;2.596;2022-12-07T12:45:22;19.50;74.80
74809;DHT22;63338;39.544;2.596;2022-12-07T12:50:47;19.40;74.50
74809;DHT22;63338;39.544;2.596;2022-12-07T12:53:25;19.40;74.80
74809;DHT22;63338;39.544;2.596;2022-12-07T12:56:46;19.30;74.80
74809;DHT22;63338;39.544;2.596;2022-12-07T12:59:34;19.40;74.70
74809;DHT22;63338;39.544;2.596;2022-12-07T13:10:41;19.60;74.20
74809;DHT22;63338;39.544;2.596;2022-12-07T13:28:45;19.40;73.40
74809;DHT22;63338;39.544;2.596;2022-12-07T13:31:16;19.40;74.20
74809;DHT22;63338;39.544;2.596;2022-12-07T13:33:45;19.30;74.60
74809;DHT22;63338;39.544;2.596;2022-12-07T13:36:34;19.20;74.70
74809;DHT22;63338;39.544;2.596;2022-12-07T13:39:18;19.20;75.20
74809;DHT22;63338;39.544;2.596;2022-12-07T13:41:58;19.20;75.10
74809;DHT22;63338;39.544;2.596;2022-12-07T13:44:33;19.20;75.20
74809;DHT22;63338;39.544;2.596;2022-12-07T13:49:47;19.00;74.50
74809;DHT22;63338;39.544;2.596;2022-12-07T13:54:55;18.80;74.50
74809;DHT22;63338;39.544;2.596;2022-12-07T13:57:22;18.70;74.80
74809;DHT22;63338;39.544;2.596;2022-12-07T13:59:50;18.60;75.60
74809;DHT22;63338;39.544;2.596;2022-12-07T14:02:22;18.50;76.20
74809;DHT22;63338;39.544;2.596;2022-12-07T14:04:50;18.50;75.90
74809;DHT22;63338;39.544;2.596;2022-12-07T14:07:28;18.40;76.10
74809;DHT22;63338;39.544;2.596;2022-12-07T14:10:05;18.50;76.10
74809;DHT22;63338;39.544;2.596;2022-12-07T14:12:39;18.40;76.70
74809;DHT22;63338;39.544;2.596;2022-12-07T14:15:36;18.50;76.60
74809;DHT22;63338;39.544;2.596;2022-12-07T14:18:03;18.40;76.70
74809;DHT22;63338;39.544;2.596;2022-12-07T14:22:58;18.40;76.80
74809;DHT22;63338;39.544;2.596;2022-12-07T14:25:26;18.40;77.00
74809;DHT22;63338;39.544;2.596;2022-12-07T14:27:58;18.40;77.30
74809;DHT22;63338;39.544;2.596;2022-12-07T14:30:27;18.40;77.40
74809;DHT22;63338;39.544;2.596;2022-12-07T14:32:58;18.30;77.40
74809;DHT22;63338;39.544;2.596;2022-12-07T14:35:37;18.20;78.00
74809;DHT22;63338;39.544;2.596;2022-12-07T14:38:07;18.10;79.40
74809;DHT22;63338;39.544;2.596;2022-12-07T14:40:36;18.20;78.60
74809;DHT22;63338;39.544;2.596;2022-12-07T14:43:12;18.10;79.80
74809;DHT22;63338;39.544;2.596;2022-12-07T14:45:38;18.20;78.80
74809;DHT22;63338;39.544;2.596;2022-12-07T14:48:06;18.10;80.20
74809;DHT22;63338;39.544;2.596;2022-12-07T14:50:38;18.20;78.90
74809;DHT22;63338;39.544;2.596;2022-12-07T14:53:46;18.10;80.30
74809;DHT22;63338;39.544;2.596;2022-12-07T14:56:15;18.10;80.00
74809;DHT22;63338;39.544;2.596;2022-12-07T14:58:42;18.00;80.10
74809;DHT22;63338;39.544;2.596;2022-12-07T15:01:11;17.90;80.40
74809;DHT22;63338;39.544;2.596;2022-12-07T15:03:38;17.90;80.90
74809;DHT22;63338;39.544;2.596;2022-12-07T15:06:14;17.80;81.30
74809;DHT22;63338;39.544;2.596;2022-12-07T15:08:49;17.80;81.60
74809;DHT22;63338;39.544;2.596;2022-12-07T15:11:23;17.70;81.60
74809;DHT22;63338;39.544;2.596;2022-12-07T15:13:56;17.70;82.40
74809;DHT22;63338;39.544;2.596;2022-12-07T15:16:40;17.70;82.70
74809;DHT22;63338;39.544;2.596;2022-12-07T15:19:12;17.60;83.00
74809;DHT22;63338;39.544;2.596;2022-12-07T15:21:46;17.60;83.10
74809;DHT22;63338;39.544;2.596;2022-12-07T15:24:18;17.60;83.70
74809;DHT22;63338;39.544;2.596;2022-12-07T15:26:55;17.60;84.10
74809;DHT22;63338;39.544;2.596;2022-12-07T15:29:25;17.60;84.70
74809;DHT22;63338;39.544;2.596;2022-12-07T15:32:07;17.60;85.00
74809;DHT22;63338;39.544;2.596;2022-12-07T15:34:49;17.50;85.10
74809;DHT22;63338;39.544;2.596;2022-12-07T15:37:17;17.50;85.40
74809;DHT22;63338;39.544;2.596;2022-12-07T15:40:01;17.50;85.90
74809;DHT22;63338;39.544;2.596;2022-12-07T15:42:55;17.50;86.20
74809;DHT22;63338;39.544;2.596;2022-12-07T15:45:27;17.40;86.50
74809;DHT22;63338;39.544;2.596;2022-12-07T15:47:57;17.40;86.40
74809;DHT22;63338;39.544;2.596;2022-12-07T15:50:26;17.30;86.60
74809;DHT22;63338;39.544;2.596;2022-12-07T15:52:54;17.20;86.90
74809;DHT22;63338;39.544;2.596;2022-12-07T15:55:23;17.30;86.90
74809;DHT22;63338;39.544;2.596;2022-12-07T15:57:55;17.30;87.00
74809;DHT22;63338;39.544;2.596;2022-12-07T16:00:29;17.20;87.10
74809;DHT22;63338;39.544;2.596;2022-12-07T16:02:55;17.20;87.40
74809;DHT22;63338;39.544;2.596;2022-12-07T16:05:23;17.10;87.30
74809;DHT22;63338;39.544;2.596;2022-12-07T16:07:52;17.10;87.90
74809;DHT22;63338;39.544;2.596;2022-12-07T16:10:28;17.10;88.20
74809;DHT22;63338;39.544;2.596;2022-12-07T16:12:57;17.10;88.40
74809;DHT22;63338;39.544;2.596;2022-12-07T16:15:23;17.00;88.80
74809;DHT22;63338;39.544;2.596;2022-12-07T16:18:10;17.00;88.90
74809;DHT22;63338;39.544;2.596;2022-12-07T16:20:57;16.90;89.10
74809;DHT22;63338;39.544;2.596;2022-12-07T16:23:42;16.90;89.50
74809;DHT22;63338;39.544;2.596;2022-12-07T16:26:27;16.90;89.90
74809;DHT22;63338;39.544;2.596;2022-12-07T16:29:13;16.70;89.90
74809;DHT22;63338;39.544;2.596;2022-12-07T16:32:00;16.70;90.30
74809;DHT22;63338;39.544;2.596;2022-12-07T16:34:48;16.70;90.40
74809;DHT22;63338;39.544;2.596;2022-12-07T16:37:32;16.60;90.70
74809;DHT22;63338;39.544;2.596;2022-12-07T16:40:26;16.60;90.90
74809;DHT22;63338;39.544;2.596;2022-12-07T16:43:14;16.50;91.00
74809;DHT22;63338;39.544;2.596;2022-12-07T16:45:59;16.50;90.90
74809;DHT22;63338;39.544;2.596;2022-12-07T16:48:45;16.50;90.80
74809;DHT22;63338;39.544;2.596;2022-12-07T16:51:38;16.50;90.70
74809;DHT22;63338;39.544;2.596;2022-12-07T16:54:40;16.40;90.70
74809;DHT22;63338;39.544;2.596;2022-12-07T16:57:27;16.30;91.10
74809;DHT22;63338;39.544;2.596;2022-12-07T17:00:15;16.20;91.10
74809;DHT22;63338;39.544;2.596;2022-12-07T17:03:00;16.30;91.10
74809;DHT22;63338;39.544;2.596;2022-12-07T17:05:46;16.20;91.50
74809;DHT22;63338;39.544;2.596;2022-12-07T17:08:42;16.10;91.70
74809;DHT22;63338;39.544;2.596;2022-12-07T17:11:38;16.10;91.80
74809;DHT22;63338;39.544;2.596;2022-12-07T17:14:36;16.00;91.90
74809;DHT22;63338;39.544;2.596;2022-12-07T17:21:25;16.00;92.00
74809;DHT22;63338;39.544;2.596;2022-12-07T17:24:34;15.90;92.00
74809;DHT22;63338;39.544;2.596;2022-12-07T17:30:59;15.90;92.10
74809;DHT22;63338;39.544;2.596;2022-12-07T17:33:38;16.00;92.30
74809;DHT22;63338;39.544;2.596;2022-12-07T17:36:23;15.90;92.20
74809;DHT22;63338;39.544;2.596;2022-12-07T17:39:51;15.90;92.20
74809;DHT22;63338;39.544;2.596;2022-12-07T17:42:44;15.90;92.50
74809;DHT22;63338;39.544;2.596;2022-12-07T17:45:28;15.90;92.40
74809;DHT22;63338;39.544;2.596;2022-12-07T17:48:17;15.90;92.50
74809;DHT22;63338;39.544;2.596;2022-12-07T17:50:58;15.90;92.50
74809;DHT22;63338;39.544;2.596;2022-12-07T17:54:18;15.90;92.50
74809;DHT22;63338;39.544;2.596;2022-12-07T17:57:28;16.00;92.50
74809;DHT22;63338;39.544;2.596;2022-12-07T18:00:38;15.90;92.50
74809;DHT22;63338;39.544;2.596;2022-12-07T18:03:53;16.00;92.50
74809;DHT22;63338;39.544;2.596;2022-12-07T18:06:37;16.00;92.60
74809;DHT22;63338;39.544;2.596;2022-12-07T18:09:06;16.10;92.60
74809;DHT22;63338;39.544;2.596;2022-12-07T18:12:01;16.00;92.50
74809;DHT22;63338;39.544;2.596;2022-12-07T18:14:49;16.10;92.80
74809;DHT22;63338;39.544;2.596;2022-12-07T18:17:17;16.00;92.80
74809;DHT22;63338;39.544;2.596;2022-12-07T18:19:43;16.10;92.80
74809;DHT22;63338;39.544;2.596;2022-12-07T18:22:15;16.10;92.70
74809;DHT22;63338;39.544;2.596;2022-12-07T18:25:08;16.00;92.70
74809;DHT22;63338;39.544;2.596;2022-12-07T18:27:36;16.10;92.60
74809;DHT22;63338;39.544;2.596;2022-12-07T18:30:03;16.10;92.20
74809;DHT22;63338;39.544;2.596;2022-12-07T18:32:50;16.00;91.80
74809;DHT22;63338;39.544;2.596;2022-12-07T18:35:19;16.00;91.70
74809;DHT22;63338;39.544;2.596;2022-12-07T18:37:52;16.00;91.70
74809;DHT22;63338;39.544;2.596;2022-12-07T18:40:24;15.90;91.80
74809;DHT22;63338;39.544;2.596;2022-12-07T18:43:09;15.90;91.60
74809;DHT22;63338;39.544;2.596;2022-12-07T18:50:13;15.80;91.70
74809;DHT22;63338;39.544;2.596;2022-12-07T18:52:48;15.80;91.60
74809;DHT22;63338;39.544;2.596;2022-12-07T18:55:24;15.80;91.60
74809;DHT22;63338;39.544;2.596;2022-12-07T18:58:48;15.80;91.50
74809;DHT22;63338;39.544;2.596;2022-12-07T19:09:41;15.50;91.70
74809;DHT22;63338;39.544;2.596;2022-12-07T19:12:27;15.50;91.70
74809;DHT22;63338;39.544;2.596;2022-12-07T19:18:31;15.50;91.80
74809;DHT22;63338;39.544;2.596;2022-12-07T19:21:36;15.40;93.00
74809;DHT22;63338;39.544;2.596;2022-12-07T19:32:39;15.30;93.30